createdAt,value
2023-04-19T00:02:22.499Z,3.78
2023-04-19T00:04:49.575Z,3.33
2023-04-19T00:07:18.385Z,3.20
2023-04-19T00:09:45.199Z,3.33
2023-04-19T00:12:11.979Z,3.25
2023-04-19T00:14:38.751Z,3.30
2023-04-19T00:17:05.680Z,3.15
2023-04-19T00:19:32.825Z,3.35
2023-04-19T00:21:59.605Z,3.70
2023-04-19T00:24:26.405Z,3.22
2023-04-19T00:26:53.180Z,3.10
2023-04-19T00:29:20.046Z,3.53
2023-04-19T00:31:46.968Z,3.65
2023-04-19T00:34:14.007Z,3.10
2023-04-19T00:36:40.994Z,2.55
2023-04-19T00:39:07.834Z,3.20
2023-04-19T00:41:34.866Z,3.15
2023-04-19T00:44:01.639Z,2.65
2023-04-19T00:46:28.822Z,2.92
2023-04-19T00:48:55.843Z,2.60
2023-04-19T00:51:23.346Z,2.50
2023-04-19T00:53:50.357Z,2.80
2023-04-19T00:56:21.878Z,2.33
2023-04-19T00:58:49.368Z,2.30
2023-04-19T01:01:16.219Z,2.40
2023-04-19T01:03:43.266Z,2.33
2023-04-19T01:06:10.323Z,2.70
2023-04-19T01:08:37.153Z,2.60
2023-04-19T01:11:03.958Z,2.20
2023-04-19T01:13:30.840Z,2.22
2023-04-19T01:15:58.103Z,2.13
2023-04-19T01:18:26.003Z,2.00
2023-04-19T01:20:52.981Z,2.22
2023-04-19T01:23:19.914Z,2.15
2023-04-19T01:25:50.105Z,2.00
2023-04-19T01:28:16.960Z,2.47
2023-04-19T01:30:43.902Z,2.00
2023-04-19T01:33:10.804Z,2.03
2023-04-19T01:35:37.651Z,1.58
2023-04-19T01:38:05.382Z,2.05
2023-04-19T01:43:02.182Z,2.20
2023-04-19T01:45:29.570Z,1.85
2023-04-19T01:47:56.604Z,2.15
2023-04-19T01:50:23.516Z,2.17
2023-04-19T01:52:50.297Z,2.00
2023-04-19T01:55:17.253Z,2.00
2023-04-19T01:57:44.420Z,2.00
2023-04-19T02:00:11.828Z,2.17
2023-04-19T02:02:42.077Z,2.00
2023-04-19T02:05:09.783Z,1.92
2023-04-19T02:07:36.680Z,1.80
2023-04-19T02:10:04.813Z,1.88
2023-04-19T02:14:59.694Z,2.55
2023-04-19T02:17:34.587Z,2.47
2023-04-19T02:20:03.559Z,2.47
2023-04-19T02:22:30.339Z,2.13
2023-04-19T02:24:57.172Z,2.05
2023-04-19T02:27:30.376Z,2.35
2023-04-19T02:29:57.303Z,2.33
2023-04-19T02:32:24.770Z,2.30
2023-04-19T02:34:51.914Z,2.58
2023-04-19T02:37:18.744Z,2.30
2023-04-19T02:39:45.955Z,2.42
2023-04-19T02:42:13.033Z,2.35
2023-04-19T02:44:39.873Z,2.80
2023-04-19T02:47:06.767Z,2.35
2023-04-19T02:49:36.532Z,2.30
2023-04-19T02:52:04.038Z,2.33
2023-04-19T02:54:33.261Z,2.45
2023-04-19T02:57:00.983Z,2.33
2023-04-19T02:59:28.136Z,1.88
2023-04-19T03:01:57.796Z,2.25
2023-04-19T03:04:25.576Z,2.55
2023-04-19T03:06:52.813Z,2.53
2023-04-19T03:09:20.300Z,2.40
2023-04-19T03:11:47.055Z,2.20
2023-04-19T03:14:14.103Z,2.60
2023-04-19T03:16:41.771Z,2.30
2023-04-19T03:19:08.920Z,2.45
2023-04-19T03:21:41.581Z,2.22
2023-04-19T03:24:09.153Z,2.30
2023-04-19T03:26:40.249Z,2.30
2023-04-19T03:29:07.924Z,2.15
2023-04-19T03:31:46.023Z,2.33
2023-04-19T03:34:13.701Z,2.70
2023-04-19T03:36:44.389Z,2.50
2023-04-19T03:39:11.251Z,2.33
2023-04-19T03:41:41.302Z,2.25
2023-04-19T03:44:22.343Z,2.33
2023-04-19T03:46:49.217Z,2.08
2023-04-19T03:49:20.578Z,2.47
2023-04-19T03:51:53.164Z,2.28
2023-04-19T03:54:20.110Z,2.30
2023-04-19T03:56:48.131Z,2.00
2023-04-19T03:59:15.692Z,2.70
2023-04-19T04:01:43.363Z,2.25
2023-04-19T04:04:11.954Z,2.20
2023-04-19T04:06:40.351Z,2.17
2023-04-19T04:09:07.503Z,2.55
2023-04-19T04:11:34.561Z,2.40
2023-04-19T04:14:01.508Z,2.55
2023-04-19T04:16:32.106Z,2.30
2023-04-19T04:18:59.283Z,2.47
2023-04-19T04:21:28.343Z,2.20
2023-04-19T04:23:57.870Z,2.53
2023-04-19T04:26:35.234Z,2.30
2023-04-19T04:29:29.014Z,2.47
2023-04-19T04:31:58.840Z,2.63
2023-04-19T04:34:33.038Z,3.05
2023-04-19T04:37:08.775Z,2.45
2023-04-19T04:39:39.401Z,2.78
2023-04-19T04:42:10.135Z,2.53
2023-04-19T04:44:37.215Z,2.40
2023-04-19T04:47:04.792Z,2.65
2023-04-19T04:49:38.170Z,2.47
2023-04-19T04:52:06.423Z,2.83
2023-04-19T04:54:38.606Z,2.72
2023-04-19T04:57:11.623Z,2.70
2023-04-19T04:59:38.802Z,2.45
2023-04-19T05:02:06.074Z,2.65
2023-04-19T05:04:33.045Z,2.70
2023-04-19T05:06:59.914Z,2.78
2023-04-19T05:09:27.743Z,2.50
2023-04-19T05:11:54.642Z,2.30
2023-04-19T05:14:21.904Z,2.40
2023-04-19T05:16:48.761Z,2.40
2023-04-19T05:19:15.774Z,2.53
2023-04-19T05:21:48.493Z,2.78
2023-04-19T05:29:11.775Z,2.45
2023-04-19T05:31:46.406Z,2.50
2023-04-19T05:34:21.963Z,2.85
2023-04-19T05:36:49.710Z,2.75
2023-04-19T05:39:17.196Z,2.00
2023-04-19T05:41:44.171Z,2.33
2023-04-19T05:44:10.966Z,2.08
2023-04-19T05:46:38.243Z,2.28
2023-04-19T05:49:06.925Z,2.70
2023-04-19T05:51:39.782Z,2.70
2023-04-19T05:54:12.648Z,2.40
2023-04-19T05:56:41.031Z,2.20
2023-04-19T05:59:08.488Z,2.20
2023-04-19T06:01:35.533Z,2.38
2023-04-19T06:04:02.706Z,2.35
2023-04-19T06:06:29.699Z,2.23
2023-04-19T06:08:56.650Z,2.08
2023-04-19T06:11:29.182Z,2.20
2023-04-19T06:14:02.388Z,2.13
2023-04-19T06:16:29.644Z,2.10
2023-04-19T06:18:56.899Z,2.22
2023-04-19T06:21:23.700Z,2.50
2023-04-19T06:23:50.525Z,2.30
2023-04-19T06:26:17.310Z,1.95
2023-04-19T06:28:44.119Z,1.85
2023-04-19T06:31:12.185Z,1.95
2023-04-19T06:33:39.314Z,1.63
2023-04-19T06:36:06.388Z,1.85
2023-04-19T06:38:33.185Z,2.05
2023-04-19T06:40:59.907Z,1.77
2023-04-19T06:43:26.708Z,2.65
2023-04-19T06:46:01.116Z,1.83
2023-04-19T06:48:28.095Z,2.20
2023-04-19T06:50:55.564Z,2.10
2023-04-19T06:53:23.109Z,2.10
2023-04-19T06:55:53.621Z,2.03
2023-04-19T06:58:20.856Z,2.10
2023-04-19T07:00:47.685Z,1.80
2023-04-19T07:03:14.790Z,1.70
2023-04-19T07:05:41.801Z,1.90
2023-04-19T07:08:08.650Z,2.05
2023-04-19T07:10:35.511Z,1.73
2023-04-19T07:13:02.307Z,1.83
2023-04-19T07:15:29.071Z,1.88
2023-04-19T07:17:55.922Z,1.83
2023-04-19T07:20:22.815Z,1.88
2023-04-19T07:22:49.600Z,1.67
2023-04-19T07:25:16.556Z,1.42
2023-04-19T07:27:43.358Z,1.88
2023-04-19T07:30:11.194Z,1.92
2023-04-19T07:32:38.202Z,2.05
2023-04-19T07:35:05.914Z,1.50
2023-04-19T07:37:32.989Z,2.10
2023-04-19T07:39:59.830Z,1.65
2023-04-19T07:42:26.793Z,1.83
2023-04-19T07:44:53.639Z,1.67
2023-04-19T07:47:20.535Z,2.00
2023-04-19T07:49:47.514Z,1.60
2023-04-19T07:52:14.350Z,2.35
2023-04-19T07:54:41.201Z,1.48
2023-04-19T07:57:08.039Z,1.58
2023-04-19T07:59:34.909Z,1.60
2023-04-19T08:02:01.967Z,1.30
2023-04-19T08:04:29.331Z,1.58
2023-04-19T08:06:56.443Z,1.77
2023-04-19T08:09:23.268Z,1.50
2023-04-19T08:11:50.117Z,1.67
2023-04-19T08:14:32.280Z,1.45
2023-04-19T08:17:21.042Z,1.52
2023-04-19T08:19:51.424Z,1.63
2023-04-19T08:22:19.253Z,1.52
2023-04-19T08:24:46.078Z,1.73
2023-04-19T08:27:12.877Z,1.40
2023-04-19T08:29:39.709Z,1.55
2023-04-19T08:32:07.306Z,2.10
2023-04-19T08:34:38.371Z,1.60
2023-04-19T08:37:05.878Z,1.33
2023-04-19T08:39:34.463Z,1.83
2023-04-19T08:42:10.995Z,1.60
2023-04-19T08:45:02.172Z,1.80
2023-04-19T08:47:34.795Z,1.83
2023-04-19T08:52:39.135Z,1.77
2023-04-19T08:55:11.648Z,1.80
2023-04-19T08:57:38.469Z,1.65
2023-04-19T09:00:09.395Z,1.88
2023-04-19T09:02:50.840Z,1.80
2023-04-19T09:05:19.078Z,2.00
2023-04-19T09:07:47.062Z,1.80
2023-04-19T09:10:19.248Z,1.85
2023-04-19T09:13:03.372Z,1.95
2023-04-19T09:15:38.873Z,1.85
2023-04-19T09:18:08.250Z,1.92
2023-04-19T09:20:39.579Z,1.92
2023-04-19T09:23:08.322Z,1.90
2023-04-19T09:25:55.104Z,2.20
2023-04-19T09:28:23.007Z,2.22
2023-04-19T09:33:39.669Z,1.92
2023-04-19T09:36:07.757Z,2.03
2023-04-19T09:38:48.734Z,2.08
2023-04-19T09:41:17.350Z,2.08
2023-04-19T09:44:05.386Z,2.15
2023-04-19T09:46:36.581Z,2.50
2023-04-19T09:49:41.673Z,2.45
2023-04-19T09:52:15.330Z,2.10
2023-04-19T09:54:42.860Z,2.10
2023-04-19T09:57:09.949Z,1.80
2023-04-19T09:59:36.798Z,2.30
2023-04-19T10:02:05.062Z,2.40
2023-04-19T10:04:50.064Z,1.77
2023-04-19T10:07:29.969Z,2.10
2023-04-19T10:13:03.928Z,2.20
2023-04-19T10:15:42.895Z,2.80
2023-04-19T10:18:17.296Z,2.30
2023-04-19T10:20:53.732Z,1.98
2023-04-19T10:23:21.826Z,2.35
2023-04-19T10:25:49.183Z,2.42
2023-04-19T10:28:16.957Z,1.83
2023-04-19T10:30:54.906Z,2.22
2023-04-19T10:35:59.284Z,2.35
2023-04-19T10:38:41.424Z,2.20
2023-04-19T10:41:16.444Z,2.25
2023-04-19T10:43:56.438Z,2.47
2023-04-19T10:46:25.521Z,2.50
2023-04-19T10:49:00.344Z,2.67
2023-04-19T10:51:28.856Z,2.35
2023-04-19T10:53:57.164Z,2.15
2023-04-19T10:56:35.903Z,2.30
2023-04-19T10:59:02.943Z,2.30
2023-04-19T11:01:43.098Z,2.05
2023-04-19T11:04:22.445Z,2.25
2023-04-19T11:06:52.692Z,2.38
2023-04-19T11:09:38.859Z,2.13
2023-04-19T11:12:08.487Z,2.80
2023-04-19T11:14:43.460Z,2.30
2023-04-19T11:17:25.761Z,2.40
2023-04-19T11:19:58.894Z,2.40
2023-04-19T11:22:36.639Z,2.33
2023-04-19T11:25:13.632Z,2.40
2023-04-19T11:27:41.639Z,2.53
2023-04-19T11:30:10.317Z,2.30
2023-04-19T11:32:37.813Z,2.60
2023-04-19T11:35:07.824Z,2.60
2023-04-19T11:37:36.449Z,2.50
2023-04-19T11:40:06.261Z,2.50
2023-04-19T11:42:33.875Z,2.78
2023-04-19T11:45:01.333Z,2.50
2023-04-19T11:47:28.393Z,2.15
2023-04-19T11:49:56.234Z,2.50
2023-04-19T11:52:24.701Z,2.13
2023-04-19T11:54:54.674Z,2.47
2023-04-19T11:57:30.140Z,2.03
2023-04-19T12:00:10.981Z,2.58
2023-04-19T12:02:43.829Z,2.40
2023-04-19T12:05:13.113Z,2.20
2023-04-19T12:07:59.668Z,2.42
2023-04-19T12:10:26.584Z,2.20
2023-04-19T12:12:53.425Z,2.85
2023-04-19T12:15:22.223Z,2.47
2023-04-19T12:18:01.924Z,2.13
2023-04-19T12:20:30.677Z,1.95
2023-04-19T12:22:57.427Z,2.20
2023-04-19T12:25:29.036Z,2.30
2023-04-19T12:27:56.463Z,1.98
2023-04-19T12:30:23.514Z,2.33
2023-04-19T12:32:52.586Z,2.33
2023-04-19T12:35:19.459Z,2.03
2023-04-19T12:37:46.244Z,2.47
2023-04-19T12:40:13.952Z,2.47
2023-04-19T12:42:40.745Z,2.28
2023-04-19T12:45:08.179Z,2.50
2023-04-19T12:47:34.945Z,2.70
2023-04-19T12:50:01.835Z,2.40
2023-04-19T12:52:28.749Z,2.15
2023-04-19T12:54:55.639Z,2.40
2023-04-19T12:57:22.451Z,2.30
2023-04-19T12:59:49.582Z,2.10
2023-04-19T13:02:16.634Z,2.30
2023-04-19T13:04:43.604Z,2.15
2023-04-19T13:07:10.471Z,2.60
2023-04-19T13:09:37.465Z,2.30
2023-04-19T13:12:05.986Z,2.40
2023-04-19T13:14:32.838Z,2.60
2023-04-19T13:16:59.727Z,2.85
2023-04-19T13:19:27.094Z,2.70
2023-04-19T13:21:53.900Z,2.75
2023-04-19T13:24:20.643Z,2.45
2023-04-19T13:26:47.497Z,2.60
2023-04-19T13:29:14.879Z,2.78
2023-04-19T13:31:43.574Z,2.50
2023-04-19T13:34:10.697Z,2.85
2023-04-19T13:36:37.726Z,2.97
2023-04-19T13:39:05.898Z,2.65
2023-04-19T13:41:34.589Z,3.20
2023-04-19T13:44:01.368Z,2.80
2023-04-19T13:46:28.348Z,2.67
2023-04-19T13:48:55.282Z,2.78
2023-04-19T13:51:22.300Z,2.90
2023-04-19T13:53:49.146Z,3.15
2023-04-19T13:56:16.028Z,3.00
2023-04-19T13:58:42.833Z,2.67
2023-04-19T14:01:09.736Z,2.50
2023-04-19T14:03:36.831Z,2.90
2023-04-19T14:06:04.012Z,2.65
2023-04-19T14:08:30.764Z,3.08
2023-04-19T14:10:57.641Z,2.88
2023-04-19T14:13:24.439Z,2.80
2023-04-19T14:15:51.819Z,3.10
2023-04-19T14:18:18.689Z,3.08
2023-04-19T14:20:45.576Z,2.90
2023-04-19T14:23:12.533Z,2.90
2023-04-19T14:25:39.382Z,3.08
2023-04-19T14:28:06.228Z,2.92
2023-04-19T14:30:33.065Z,3.03
2023-04-19T14:33:00.260Z,3.13
2023-04-19T14:35:27.785Z,2.88
2023-04-19T14:37:54.563Z,2.47
2023-04-19T14:40:21.411Z,2.38
2023-04-19T14:42:48.465Z,2.13
2023-04-19T14:45:15.454Z,2.25
2023-04-19T14:47:42.336Z,2.10
2023-04-19T14:50:09.611Z,3.20
2023-04-19T14:52:36.489Z,2.95
2023-04-19T14:55:04.008Z,2.42
2023-04-19T14:57:30.786Z,2.60
2023-04-19T14:59:58.177Z,2.55
2023-04-19T15:02:25.926Z,2.60
2023-04-19T15:04:53.482Z,2.35
2023-04-19T15:07:21.484Z,2.45
2023-04-19T15:09:48.594Z,2.60
2023-04-19T15:12:15.443Z,2.20
2023-04-19T15:14:42.441Z,2.40
2023-04-19T15:17:10.581Z,2.70
2023-04-19T15:19:38.827Z,3.00
2023-04-19T15:24:35.369Z,3.28
2023-04-19T15:27:02.561Z,3.70
2023-04-19T15:29:29.552Z,3.78
2023-04-19T15:31:56.404Z,4.28
2023-04-19T15:34:25.209Z,4.15
2023-04-19T15:36:52.089Z,4.68
2023-04-19T15:39:18.884Z,4.35
2023-04-19T15:41:45.779Z,4.30
2023-04-19T15:44:13.378Z,4.32
2023-04-19T15:46:40.360Z,4.03
2023-04-19T15:49:07.407Z,4.78
2023-04-19T15:51:34.275Z,4.50
2023-04-19T15:54:01.142Z,5.13
2023-04-19T15:56:28.012Z,4.68
2023-04-19T15:58:54.937Z,4.30
2023-04-19T16:01:23.164Z,4.50
2023-04-19T16:06:17.167Z,4.70
2023-04-19T16:08:43.992Z,5.15
2023-04-19T16:11:10.905Z,5.22
2023-04-19T16:13:37.671Z,5.40
2023-04-19T16:16:04.727Z,5.13
2023-04-19T16:18:31.569Z,6.22
2023-04-19T16:20:58.409Z,5.97
2023-04-19T16:23:25.533Z,6.13
2023-04-19T16:25:53.420Z,6.15
2023-04-19T16:28:21.757Z,6.43
2023-04-19T16:30:48.764Z,5.50
2023-04-19T16:33:15.774Z,6.97
2023-04-19T16:35:42.778Z,6.13
2023-04-19T16:38:09.589Z,6.68
2023-04-19T16:40:36.465Z,6.93
2023-04-19T16:43:04.722Z,7.40
2023-04-19T16:45:31.994Z,7.05
2023-04-19T16:47:58.919Z,7.27
2023-04-19T16:50:25.814Z,6.90
2023-04-19T16:52:52.617Z,7.22
2023-04-19T16:55:20.896Z,7.53
2023-04-19T16:57:47.819Z,7.50
2023-04-19T17:00:15.001Z,7.22
2023-04-19T17:02:41.919Z,7.45
2023-04-19T17:05:09.481Z,7.40
2023-04-19T17:07:36.665Z,7.60
2023-04-19T17:10:03.527Z,7.80
2023-04-19T17:12:30.487Z,8.65
2023-04-19T17:14:57.326Z,7.95
2023-04-19T17:17:24.588Z,7.60
2023-04-19T17:19:51.642Z,7.72
2023-04-19T17:22:18.653Z,7.60
2023-04-19T17:24:45.545Z,7.97
2023-04-19T17:27:12.527Z,7.82
2023-04-19T17:29:39.308Z,7.80
2023-04-19T17:32:07.685Z,8.35
2023-04-19T17:34:36.593Z,8.88
2023-04-19T17:37:04.073Z,7.68
2023-04-19T17:39:31.106Z,7.70
2023-04-19T17:41:57.994Z,10.27
2023-04-19T17:44:25.066Z,8.32
2023-04-19T17:46:51.925Z,8.25
2023-04-19T17:49:20.092Z,7.78
2023-04-19T17:51:47.433Z,8.30
2023-04-19T17:54:15.865Z,8.82
2023-04-19T17:56:42.924Z,6.55
2023-04-19T17:59:09.774Z,6.97
2023-04-19T18:01:36.815Z,6.95
2023-04-19T18:04:04.437Z,7.45
2023-04-19T18:06:31.800Z,7.63
2023-04-19T18:08:58.740Z,8.40
2023-04-19T18:11:28.188Z,7.15
2023-04-19T18:13:55.566Z,6.80
2023-04-19T18:16:22.538Z,6.95
2023-04-19T18:18:49.344Z,7.13
2023-04-19T18:21:16.986Z,6.90
2023-04-19T18:23:43.795Z,8.32
2023-04-19T18:26:10.709Z,7.25
2023-04-19T18:28:37.657Z,7.55
2023-04-19T18:31:06.728Z,7.88
2023-04-19T18:33:33.704Z,8.73
2023-04-19T18:36:00.490Z,8.23
2023-04-19T18:38:27.375Z,9.05
2023-04-19T18:40:54.314Z,10.43
2023-04-19T18:43:21.212Z,9.15
2023-04-19T18:45:57.672Z,9.07
2023-04-19T18:48:28.780Z,8.90
2023-04-19T18:50:57.185Z,9.23
2023-04-19T18:53:28.482Z,8.73
2023-04-19T18:55:59.338Z,9.65
2023-04-19T18:58:26.931Z,9.52
2023-04-19T19:00:54.763Z,10.13
2023-04-19T19:03:49.792Z,10.73
2023-04-19T19:06:10.139Z,9.65
2023-04-19T19:08:37.374Z,9.53
2023-04-19T19:13:34.288Z,10.02
2023-04-19T19:16:01.296Z,10.77
2023-04-19T19:18:29.393Z,10.80
2023-04-19T19:21:03.158Z,10.73
2023-04-19T19:23:35.959Z,10.90
2023-04-19T19:26:06.445Z,10.70
2023-04-19T19:28:33.354Z,11.25
2023-04-19T19:31:00.395Z,11.95
2023-04-19T19:33:28.914Z,12.65
2023-04-19T19:35:55.918Z,13.23
2023-04-19T19:38:22.778Z,12.93
2023-04-19T19:43:19.312Z,14.73
2023-04-19T19:45:46.160Z,14.80
2023-04-19T19:48:13.083Z,15.63
2023-04-19T19:53:09.800Z,16.77
2023-04-19T19:55:37.094Z,15.50
2023-04-19T20:00:45.068Z,16.02
2023-04-19T20:03:15.039Z,17.30
2023-04-19T20:05:42.603Z,16.98
2023-04-19T20:08:12.330Z,17.65
2023-04-19T20:10:41.127Z,17.38
2023-04-19T20:13:08.122Z,18.42
2023-04-19T20:15:36.419Z,18.40
2023-04-19T20:18:04.263Z,18.50
2023-04-19T20:20:31.247Z,19.65
2023-04-19T20:22:58.069Z,20.30
2023-04-19T20:25:24.951Z,19.90
2023-04-19T20:27:53.564Z,20.33
2023-04-19T20:30:20.358Z,19.45
2023-04-19T20:32:49.696Z,20.52
2023-04-19T20:35:16.843Z,21.80
2023-04-19T20:37:44.460Z,20.45
2023-04-19T20:40:13.574Z,20.50
2023-04-19T20:42:41.141Z,20.27
2023-04-19T20:45:11.712Z,20.65
2023-04-19T20:47:38.771Z,22.00
2023-04-19T20:50:07.200Z,23.95
2023-04-19T20:52:34.754Z,21.50
2023-04-19T20:55:01.624Z,20.17
2023-04-19T20:57:28.542Z,19.92
2023-04-19T20:59:55.327Z,20.05
2023-04-19T21:02:22.212Z,19.95
2023-04-19T21:04:49.223Z,20.00
2023-04-19T21:07:16.111Z,20.10
2023-04-19T21:09:43.034Z,20.42
2023-04-19T21:12:09.845Z,21.02
2023-04-19T21:14:36.747Z,20.40
2023-04-19T21:17:03.698Z,20.42
2023-04-19T21:19:30.620Z,20.95
2023-04-19T21:21:58.692Z,21.08
2023-04-19T21:26:52.688Z,20.58
2023-04-19T21:29:20.274Z,21.95
2023-04-19T21:31:47.655Z,21.02
2023-04-19T21:34:14.523Z,21.50
2023-04-19T21:36:41.343Z,20.83
2023-04-19T21:39:08.793Z,20.70
2023-04-19T21:41:36.636Z,20.67
2023-04-19T21:44:03.455Z,20.15
2023-04-19T21:46:30.398Z,20.35
2023-04-19T21:48:57.265Z,19.30
2023-04-19T21:51:24.142Z,19.88
2023-04-19T21:53:50.926Z,19.70
2023-04-19T21:56:17.716Z,20.42
2023-04-19T21:58:44.524Z,19.95
2023-04-19T22:01:11.470Z,19.50
2023-04-19T22:03:39.301Z,19.80
2023-04-19T22:06:06.529Z,19.77
2023-04-19T22:08:33.895Z,19.60
2023-04-19T22:11:01.515Z,19.60
2023-04-19T22:13:28.559Z,18.58
2023-04-19T22:15:56.989Z,18.30
2023-04-19T22:18:24.086Z,18.48
2023-04-19T22:20:52.043Z,18.75
2023-04-19T22:23:19.308Z,17.40
2023-04-19T22:25:46.198Z,18.88
2023-04-19T22:28:13.058Z,18.95
2023-04-19T22:30:39.976Z,18.83
2023-04-19T22:33:06.893Z,18.63
2023-04-19T22:35:33.761Z,18.85
2023-04-19T22:38:00.616Z,19.45
2023-04-19T22:40:27.441Z,19.95
2023-04-19T22:42:54.211Z,19.83
2023-04-19T22:45:20.960Z,20.48
2023-04-19T22:47:47.822Z,20.20
2023-04-19T22:50:14.754Z,19.33
2023-04-19T22:52:42.527Z,19.30
2023-04-19T22:55:10.127Z,18.67
2023-04-19T22:57:36.883Z,20.25
2023-04-19T23:00:05.407Z,19.88
2023-04-19T23:02:32.614Z,19.98
2023-04-19T23:05:00.677Z,19.97
2023-04-19T23:12:23.936Z,19.48
2023-04-19T23:14:50.910Z,20.30
2023-04-19T23:17:18.001Z,19.95
2023-04-19T23:19:44.951Z,20.20
2023-04-19T23:22:11.792Z,21.85
2023-04-19T23:24:38.771Z,20.80
2023-04-19T23:27:05.684Z,21.52
2023-04-19T23:29:32.555Z,20.75
2023-04-19T23:32:01.317Z,20.63
2023-04-19T23:34:28.174Z,21.10
2023-04-19T23:36:55.069Z,21.55
2023-04-19T23:39:21.958Z,21.67
2023-04-19T23:41:48.859Z,21.30
2023-04-19T23:44:15.634Z,20.55
2023-04-19T23:46:42.497Z,22.05
2023-04-19T23:49:09.394Z,21.50
2023-04-19T23:51:36.387Z,22.17
2023-04-19T23:54:03.334Z,20.77
2023-04-19T23:56:30.540Z,21.35
2023-04-19T23:58:57.465Z,22.38
